createdAt,value
2023-03-26T00:00:41.804Z,997.33
2023-03-26T00:01:41.848Z,997.34
2023-03-26T00:02:41.790Z,997.35
2023-03-26T00:03:41.740Z,997.34
2023-03-26T00:04:41.730Z,997.36
2023-03-26T00:05:41.817Z,997.36
2023-03-26T00:06:41.756Z,997.38
2023-03-26T00:07:41.712Z,997.36
2023-03-26T00:08:41.699Z,997.39
2023-03-26T00:09:41.685Z,997.40
2023-03-26T00:10:41.674Z,997.41
2023-03-26T00:11:41.685Z,997.44
2023-03-26T00:12:41.651Z,997.42
2023-03-26T00:13:41.644Z,997.41
2023-03-26T00:14:41.623Z,997.38
2023-03-26T00:15:41.634Z,997.38
2023-03-26T00:16:41.633Z,997.38
2023-03-26T00:17:41.644Z,997.40
2023-03-26T00:18:41.618Z,997.40
2023-03-26T00:19:41.596Z,997.39
2023-03-26T00:20:41.577Z,997.40
2023-03-26T00:21:41.627Z,997.39
2023-03-26T00:22:41.552Z,997.37
2023-03-26T00:23:41.553Z,997.38
2023-03-26T00:24:41.520Z,997.37
2023-03-26T00:25:41.523Z,997.32
2023-03-26T00:26:41.506Z,997.32
2023-03-26T00:27:41.489Z,997.31
2023-03-26T00:28:41.530Z,997.30
2023-03-26T00:29:41.482Z,997.27
2023-03-26T00:30:41.514Z,997.29
2023-03-26T00:31:41.489Z,997.29
2023-03-26T00:32:41.482Z,997.28
2023-03-26T00:33:41.432Z,997.30
2023-03-26T00:34:41.495Z,997.28
2023-03-26T00:35:41.562Z,997.25
2023-03-26T00:36:41.427Z,997.26
2023-03-26T00:37:41.388Z,997.24
2023-03-26T00:38:41.386Z,997.22
2023-03-26T00:39:41.376Z,997.19
2023-03-26T00:40:41.386Z,997.21
2023-03-26T00:41:41.365Z,997.18
2023-03-26T00:42:41.355Z,997.17
2023-03-26T00:43:41.335Z,997.18
2023-03-26T00:44:41.326Z,997.17
2023-03-26T00:45:41.318Z,997.17
2023-03-26T00:46:41.438Z,997.16
2023-03-26T00:47:41.350Z,997.14
2023-03-26T00:48:45.606Z,997.14
2023-03-26T00:49:41.272Z,997.12
2023-03-26T00:50:41.265Z,997.11
2023-03-26T00:51:41.269Z,997.11
2023-03-26T00:52:41.250Z,997.10
2023-03-26T00:53:41.256Z,997.09
2023-03-26T00:54:41.251Z,997.08
2023-03-26T00:55:41.225Z,997.10
2023-03-26T00:56:41.263Z,997.09
2023-03-26T00:57:41.190Z,997.08
2023-03-26T00:58:41.210Z,997.07
2023-03-26T00:59:41.195Z,997.06
2023-03-26T01:00:41.180Z,997.03
2023-03-26T01:01:41.207Z,997.02
2023-03-26T01:02:41.238Z,997.01
2023-03-26T01:03:42.878Z,996.98
2023-03-26T01:04:41.198Z,996.97
2023-03-26T01:05:41.108Z,996.97
2023-03-26T01:06:41.116Z,996.96
2023-03-26T01:07:41.091Z,996.97
2023-03-26T01:08:41.096Z,996.94
2023-03-26T01:09:41.072Z,996.92
2023-03-26T01:10:41.062Z,996.93
2023-03-26T01:11:41.099Z,996.92
2023-03-26T01:12:41.075Z,996.92
2023-03-26T01:13:41.032Z,996.91
2023-03-26T01:14:41.028Z,996.90
2023-03-26T01:15:41.070Z,996.90
2023-03-26T01:16:41.006Z,996.89
2023-03-26T01:17:41.030Z,996.86
2023-03-26T01:18:41.034Z,996.84
2023-03-26T01:19:40.968Z,996.84
2023-03-26T01:20:40.967Z,996.82
2023-03-26T01:21:40.952Z,996.81
2023-03-26T01:22:40.947Z,996.80
2023-03-26T01:23:40.930Z,996.82
2023-03-26T01:24:40.931Z,996.81
2023-03-26T01:25:40.906Z,996.81
2023-03-26T01:26:40.901Z,996.83
2023-03-26T01:27:40.910Z,996.81
2023-03-26T01:28:40.878Z,996.81
2023-03-26T01:29:40.869Z,996.81
2023-03-26T01:30:40.905Z,996.81
2023-03-26T01:31:40.868Z,996.81
2023-03-26T01:32:40.895Z,996.79
2023-03-26T01:33:40.887Z,996.78
2023-03-26T01:34:40.822Z,996.76
2023-03-26T01:35:40.929Z,996.74
2023-03-26T01:36:40.805Z,996.74
2023-03-26T01:37:40.811Z,996.72
2023-03-26T01:38:40.780Z,996.71
2023-03-26T01:39:40.765Z,996.71
2023-03-26T01:40:40.755Z,996.71
2023-03-26T01:41:40.745Z,996.70
2023-03-26T01:42:40.754Z,996.70
2023-03-26T01:43:40.738Z,996.67
2023-03-26T01:44:40.723Z,996.67
2023-03-26T01:45:40.714Z,996.66
2023-03-26T01:46:40.735Z,996.65
2023-03-26T01:47:40.690Z,996.64
2023-03-26T01:48:40.690Z,996.62
2023-03-26T01:49:40.689Z,996.63
2023-03-26T01:50:40.662Z,996.61
2023-03-26T01:51:40.644Z,996.63
2023-03-26T01:52:40.660Z,996.60
2023-03-26T01:53:40.641Z,996.59
2023-03-26T01:54:40.618Z,996.57
2023-03-26T01:55:40.609Z,996.56
2023-03-26T01:56:40.641Z,996.55
2023-03-26T01:57:40.580Z,996.55
2023-03-26T01:58:40.622Z,996.53
2023-03-26T01:59:40.565Z,996.49
2023-03-26T02:00:40.606Z,996.48
2023-03-26T02:01:40.610Z,996.48
2023-03-26T02:02:40.693Z,996.46
2023-03-26T02:03:40.564Z,996.43
2023-03-26T02:04:40.519Z,996.41
2023-03-26T02:05:40.501Z,996.41
2023-03-26T02:06:40.545Z,996.40
2023-03-26T02:07:40.493Z,996.36
2023-03-26T02:08:40.484Z,996.34
2023-03-26T02:09:40.463Z,996.33
2023-03-26T02:10:40.463Z,996.31
2023-03-26T02:11:40.437Z,996.32
2023-03-26T02:12:40.448Z,996.29
2023-03-26T02:13:40.434Z,996.27
2023-03-26T02:14:40.427Z,996.25
2023-03-26T02:15:40.417Z,996.23
2023-03-26T02:16:40.438Z,996.23
2023-03-26T02:17:40.677Z,996.22
2023-03-26T02:18:40.377Z,996.20
2023-03-26T02:19:40.362Z,996.19
2023-03-26T02:20:40.363Z,996.18
2023-03-26T02:21:40.349Z,996.16
2023-03-26T02:22:40.337Z,996.16
2023-03-26T02:23:40.319Z,996.16
2023-03-26T02:24:40.314Z,996.15
2023-03-26T02:25:40.298Z,996.13
2023-03-26T02:26:40.306Z,996.11
2023-03-26T02:27:40.318Z,996.08
2023-03-26T02:28:40.268Z,996.06
2023-03-26T02:29:40.255Z,996.06
2023-03-26T02:30:40.259Z,996.04
2023-03-26T02:31:40.332Z,996.02
2023-03-26T02:32:40.299Z,995.98
2023-03-26T02:33:40.225Z,995.97
2023-03-26T02:34:40.205Z,995.98
2023-03-26T02:35:40.346Z,995.95
2023-03-26T02:36:40.342Z,995.94
2023-03-26T02:37:40.184Z,995.93
2023-03-26T02:38:40.185Z,995.94
2023-03-26T02:39:40.156Z,995.93
2023-03-26T02:40:40.147Z,995.93
2023-03-26T02:41:40.142Z,995.92
2023-03-26T02:42:40.136Z,995.91
2023-03-26T02:43:40.140Z,995.92
2023-03-26T02:44:40.130Z,995.92
2023-03-26T02:45:40.118Z,995.92
2023-03-26T02:46:40.081Z,995.89
2023-03-26T02:47:40.121Z,995.89
2023-03-26T02:48:40.069Z,995.88
2023-03-26T02:49:40.047Z,995.87
2023-03-26T02:50:40.056Z,995.87
2023-03-26T02:51:40.032Z,995.88
2023-03-26T02:52:40.051Z,995.89
2023-03-26T02:53:40.006Z,995.88
2023-03-26T02:54:40.005Z,995.88
2023-03-26T02:55:39.982Z,995.88
2023-03-26T02:56:40.021Z,995.86
2023-03-26T02:57:40.010Z,995.86
2023-03-26T02:58:39.979Z,995.86
2023-03-26T02:59:39.940Z,995.86
2023-03-26T03:00:39.944Z,995.85
2023-03-26T03:01:39.985Z,995.86
2023-03-26T03:02:40.023Z,995.86
2023-03-26T03:03:39.904Z,995.84
2023-03-26T03:04:39.888Z,995.82
2023-03-26T03:05:39.893Z,995.80
2023-03-26T03:06:39.878Z,995.79
2023-03-26T03:07:39.859Z,995.79
2023-03-26T03:08:39.862Z,995.78
2023-03-26T03:09:39.832Z,995.74
2023-03-26T03:10:39.835Z,995.73
2023-03-26T03:11:39.812Z,995.70
2023-03-26T03:12:39.847Z,995.67
2023-03-26T03:13:39.797Z,995.66
2023-03-26T03:14:39.790Z,995.64
2023-03-26T03:15:39.812Z,995.63
2023-03-26T03:16:39.797Z,995.60
2023-03-26T03:17:39.786Z,995.59
2023-03-26T03:18:39.762Z,995.56
2023-03-26T03:19:39.736Z,995.55
2023-03-26T03:20:39.737Z,995.52
2023-03-26T03:21:39.709Z,995.49
2023-03-26T03:22:39.713Z,995.47
2023-03-26T03:23:39.699Z,995.45
2023-03-26T03:24:39.687Z,995.42
2023-03-26T03:25:39.706Z,995.42
2023-03-26T03:26:39.681Z,995.40
2023-03-26T03:27:39.646Z,995.39
2023-03-26T03:28:39.640Z,995.36
2023-03-26T03:29:39.637Z,995.35
2023-03-26T03:30:39.648Z,995.34
2023-03-26T03:31:39.643Z,995.34
2023-03-26T03:32:39.631Z,995.33
2023-03-26T03:33:39.588Z,995.32
2023-03-26T03:34:39.581Z,995.33
2023-03-26T03:35:39.687Z,995.31
2023-03-26T03:36:39.574Z,995.28
2023-03-26T03:37:39.632Z,995.26
2023-03-26T03:38:39.547Z,995.24
2023-03-26T03:39:39.527Z,995.23
2023-03-26T03:40:39.553Z,995.22
2023-03-26T03:41:39.509Z,995.22
2023-03-26T03:42:39.517Z,995.22
2023-03-26T03:43:39.491Z,995.21
2023-03-26T03:44:39.498Z,995.22
2023-03-26T03:45:39.474Z,995.21
2023-03-26T03:46:39.512Z,995.21
2023-03-26T03:47:39.554Z,995.20
2023-03-26T03:48:39.448Z,995.20
2023-03-26T03:49:39.450Z,995.20
2023-03-26T03:50:39.430Z,995.20
2023-03-26T03:51:39.406Z,995.20
2023-03-26T03:52:39.441Z,995.19
2023-03-26T03:53:39.388Z,995.20
2023-03-26T03:54:39.398Z,995.19
2023-03-26T03:55:39.367Z,995.18
2023-03-26T03:56:39.382Z,995.17
2023-03-26T03:57:39.368Z,995.16
2023-03-26T03:58:39.338Z,995.15
2023-03-26T03:59:47.809Z,995.16
2023-03-26T04:00:39.321Z,995.14
2023-03-26T04:01:39.308Z,995.13
2023-03-26T04:02:39.326Z,995.13
2023-03-26T04:03:39.437Z,995.13
2023-03-26T04:04:39.318Z,995.11
2023-03-26T04:05:39.271Z,995.11
2023-03-26T04:06:39.269Z,995.11
2023-03-26T04:07:39.251Z,995.10
2023-03-26T04:08:39.238Z,995.09
2023-03-26T04:09:39.217Z,995.09
2023-03-26T04:10:39.231Z,995.08
2023-03-26T04:11:39.209Z,995.07
2023-03-26T04:12:39.200Z,995.06
2023-03-26T04:13:39.186Z,995.05
2023-03-26T04:14:39.192Z,995.03
2023-03-26T04:15:39.252Z,995.02
2023-03-26T04:16:39.162Z,995.01
2023-03-26T04:17:39.245Z,995.00
2023-03-26T04:18:39.141Z,994.99
2023-03-26T04:19:39.129Z,994.96
2023-03-26T04:20:39.128Z,994.93
2023-03-26T04:21:39.107Z,994.91
2023-03-26T04:22:39.099Z,994.88
2023-03-26T04:23:39.080Z,994.87
2023-03-26T04:24:39.076Z,994.85
2023-03-26T04:25:39.064Z,994.82
2023-03-26T04:26:39.071Z,994.80
2023-03-26T04:27:39.057Z,994.78
2023-03-26T04:28:39.026Z,994.76
2023-03-26T04:29:39.009Z,994.75
2023-03-26T04:30:39.557Z,994.73
2023-03-26T04:31:39.027Z,994.73
2023-03-26T04:32:39.035Z,994.73
2023-03-26T04:33:38.968Z,994.72
2023-03-26T04:34:38.991Z,994.71
2023-03-26T04:35:39.061Z,994.69
2023-03-26T04:36:38.948Z,994.68
2023-03-26T04:37:38.919Z,994.66
2023-03-26T04:38:38.925Z,994.65
2023-03-26T04:39:38.907Z,994.63
2023-03-26T04:40:38.893Z,994.62
2023-03-26T04:41:38.888Z,994.61
2023-03-26T04:42:38.867Z,994.60
2023-03-26T04:43:38.877Z,994.60
2023-03-26T04:44:38.856Z,994.59
2023-03-26T04:45:38.860Z,994.58
2023-03-26T04:46:38.791Z,994.57
2023-03-26T04:47:38.837Z,994.56
2023-03-26T04:48:38.826Z,994.54
2023-03-26T04:49:38.818Z,994.52
2023-03-26T04:50:38.822Z,994.50
2023-03-26T04:51:38.795Z,994.49
2023-03-26T04:52:38.777Z,994.47
2023-03-26T04:53:38.712Z,994.46
2023-03-26T04:54:38.682Z,994.46
2023-03-26T04:55:38.693Z,994.44
2023-03-26T04:56:38.679Z,994.41
2023-03-26T04:57:38.657Z,994.39
2023-03-26T04:58:38.697Z,994.37
2023-03-26T04:59:38.684Z,994.36
2023-03-26T05:00:38.719Z,994.35
2023-03-26T05:01:38.660Z,994.33
2023-03-26T05:02:38.628Z,994.33
2023-03-26T05:03:38.653Z,994.32
2023-03-26T05:04:38.690Z,994.31
2023-03-26T05:05:38.624Z,994.31
2023-03-26T05:06:38.570Z,994.29
2023-03-26T05:07:38.545Z,994.29
2023-03-26T05:08:38.546Z,994.28
2023-03-26T05:09:38.588Z,994.28
2023-03-26T05:10:38.514Z,994.27
2023-03-26T05:11:38.499Z,994.26
2023-03-26T05:12:38.481Z,994.25
2023-03-26T05:13:38.475Z,994.24
2023-03-26T05:14:38.473Z,994.24
2023-03-26T05:15:38.571Z,994.22
2023-03-26T05:16:38.699Z,994.21
2023-03-26T05:17:38.449Z,994.19
2023-03-26T05:18:38.421Z,994.17
2023-03-26T05:19:38.415Z,994.16
2023-03-26T05:20:38.408Z,994.15
2023-03-26T05:21:38.389Z,994.14
2023-03-26T05:22:38.382Z,994.13
2023-03-26T05:23:38.372Z,994.12
2023-03-26T05:24:38.360Z,994.12
2023-03-26T05:25:38.354Z,994.12
2023-03-26T05:26:38.343Z,994.12
2023-03-26T05:27:38.332Z,994.11
2023-03-26T05:28:38.317Z,994.10
2023-03-26T05:29:38.319Z,994.08
2023-03-26T05:30:38.300Z,994.06
2023-03-26T05:31:38.285Z,994.03
2023-03-26T05:32:38.287Z,994.01
2023-03-26T05:33:38.370Z,993.99
2023-03-26T05:34:38.249Z,993.97
2023-03-26T05:35:38.305Z,993.95
2023-03-26T05:36:38.302Z,993.93
2023-03-26T05:37:38.220Z,993.93
2023-03-26T05:38:38.210Z,993.91
2023-03-26T05:39:38.246Z,993.90
2023-03-26T05:40:38.201Z,993.89
2023-03-26T05:41:38.183Z,993.87
2023-03-26T05:42:38.167Z,993.85
2023-03-26T05:43:38.166Z,993.83
2023-03-26T05:44:38.153Z,993.82
2023-03-26T05:45:38.156Z,993.79
2023-03-26T05:46:38.131Z,993.77
2023-03-26T05:47:38.185Z,993.75
2023-03-26T05:48:38.119Z,993.74
2023-03-26T05:49:38.140Z,993.72
2023-03-26T05:50:38.083Z,993.72
2023-03-26T05:51:38.077Z,993.72
2023-03-26T05:52:38.081Z,993.71
2023-03-26T05:53:38.054Z,993.69
2023-03-26T05:54:38.055Z,993.68
2023-03-26T05:55:38.035Z,993.67
2023-03-26T05:56:38.161Z,993.66
2023-03-26T05:57:38.018Z,993.65
2023-03-26T05:58:38.042Z,993.64
2023-03-26T05:59:38.005Z,993.63
2023-03-26T06:00:37.981Z,993.62
2023-03-26T06:01:37.976Z,993.59
2023-03-26T06:02:38.023Z,993.58
2023-03-26T06:03:38.210Z,993.57
2023-03-26T06:04:38.085Z,993.56
2023-03-26T06:05:37.930Z,993.54
2023-03-26T06:06:37.924Z,993.52
2023-03-26T06:07:37.934Z,993.51
2023-03-26T06:08:37.909Z,993.49
2023-03-26T06:09:37.896Z,993.48
2023-03-26T06:10:37.879Z,993.46
2023-03-26T06:11:37.881Z,993.44
2023-03-26T06:12:37.852Z,993.42
2023-03-26T06:13:37.876Z,993.40
2023-03-26T06:14:37.826Z,993.38
2023-03-26T06:15:37.889Z,993.36
2023-03-26T06:16:37.830Z,993.34
2023-03-26T06:17:37.833Z,993.34
2023-03-26T06:18:37.873Z,993.33
2023-03-26T06:19:37.800Z,993.32
2023-03-26T06:20:37.800Z,993.32
2023-03-26T06:21:37.760Z,993.30
2023-03-26T06:22:37.751Z,993.28
2023-03-26T06:23:37.740Z,993.27
2023-03-26T06:24:37.732Z,993.26
2023-03-26T06:25:37.746Z,993.26
2023-03-26T06:26:37.708Z,993.26
2023-03-26T06:27:37.702Z,993.26
2023-03-26T06:28:37.688Z,993.26
2023-03-26T06:29:37.727Z,993.26
2023-03-26T06:30:37.667Z,993.27
2023-03-26T06:31:37.711Z,993.27
2023-03-26T06:32:37.660Z,993.28
2023-03-26T06:33:37.652Z,993.29
2023-03-26T06:34:37.626Z,993.29
2023-03-26T06:35:37.705Z,993.29
2023-03-26T06:36:37.611Z,993.29
2023-03-26T06:37:37.600Z,993.29
2023-03-26T06:38:37.677Z,993.29
2023-03-26T06:39:37.586Z,993.28
2023-03-26T06:40:37.573Z,993.28
2023-03-26T06:41:37.578Z,993.27
2023-03-26T06:43:09.090Z,993.28
2023-03-26T06:43:37.558Z,993.28
2023-03-26T06:44:37.525Z,993.28
2023-03-26T06:45:37.536Z,993.29
2023-03-26T06:46:37.515Z,993.29
2023-03-26T06:47:37.539Z,993.30
2023-03-26T06:48:37.492Z,993.30
2023-03-26T06:49:37.476Z,993.29
2023-03-26T06:50:37.472Z,993.30
2023-03-26T06:51:37.451Z,993.30
2023-03-26T06:52:37.443Z,993.28
2023-03-26T06:53:37.443Z,993.28
2023-03-26T06:54:37.449Z,993.27
2023-03-26T06:55:37.422Z,993.27
2023-03-26T06:56:37.430Z,993.26
2023-03-26T06:57:37.405Z,993.27
2023-03-26T06:58:37.386Z,993.26
2023-03-26T06:59:37.385Z,993.26
2023-03-26T07:00:37.379Z,993.25
2023-03-26T07:01:37.380Z,993.23
2023-03-26T07:02:37.401Z,993.22
2023-03-26T07:03:37.373Z,993.21
2023-03-26T07:04:37.339Z,993.21
2023-03-26T07:05:37.341Z,993.20
2023-03-26T07:06:37.312Z,993.20
2023-03-26T07:07:37.313Z,993.18
2023-03-26T07:08:37.295Z,993.16
2023-03-26T07:09:37.274Z,993.17
2023-03-26T07:10:37.254Z,993.16
2023-03-26T07:11:37.248Z,993.14
2023-03-26T07:12:37.245Z,993.13
2023-03-26T07:13:37.233Z,993.11
2023-03-26T07:14:37.209Z,993.10
2023-03-26T07:15:37.221Z,993.09
2023-03-26T07:16:37.249Z,993.08
2023-03-26T07:17:37.243Z,993.07
2023-03-26T07:18:37.200Z,993.06
2023-03-26T07:19:37.177Z,993.06
2023-03-26T07:20:37.159Z,993.05
2023-03-26T07:21:37.153Z,993.04
2023-03-26T07:22:37.141Z,993.04
2023-03-26T07:23:37.130Z,993.03
2023-03-26T07:24:37.119Z,993.02
2023-03-26T07:25:37.118Z,993.01
2023-03-26T07:26:37.101Z,993.00
2023-03-26T07:27:37.096Z,992.99
2023-03-26T07:28:37.076Z,992.97
2023-03-26T07:29:37.065Z,992.95
2023-03-26T07:30:37.048Z,992.95
2023-03-26T07:31:37.113Z,992.94
2023-03-26T07:32:37.105Z,992.92
2023-03-26T07:33:37.019Z,992.92
2023-03-26T07:34:37.012Z,992.90
2023-03-26T07:35:37.041Z,992.89
2023-03-26T07:36:36.990Z,992.88
2023-03-26T07:37:36.994Z,992.87
2023-03-26T07:38:36.974Z,992.85
2023-03-26T07:39:36.972Z,992.84
2023-03-26T07:40:36.962Z,992.83
2023-03-26T07:41:36.973Z,992.82
2023-03-26T07:42:36.920Z,992.80
2023-03-26T07:43:36.920Z,992.78
2023-03-26T07:44:36.902Z,992.76
2023-03-26T07:45:36.941Z,992.74
2023-03-26T07:46:36.901Z,992.74
2023-03-26T07:47:36.911Z,992.73
2023-03-26T07:48:36.882Z,992.71
2023-03-26T07:49:36.849Z,992.70
2023-03-26T07:50:36.839Z,992.69
2023-03-26T07:51:36.856Z,992.68
2023-03-26T07:52:36.832Z,992.68
2023-03-26T07:53:36.865Z,992.67
2023-03-26T07:54:36.813Z,992.66
2023-03-26T07:55:36.825Z,992.64
2023-03-26T07:56:36.924Z,992.63
2023-03-26T07:57:36.806Z,992.62
2023-03-26T07:58:36.762Z,992.62
2023-03-26T07:59:36.754Z,992.60
2023-03-26T08:00:36.746Z,992.60
2023-03-26T08:01:44.209Z,992.57
2023-03-26T08:02:36.928Z,992.57
2023-03-26T08:03:36.761Z,992.57
2023-03-26T08:04:36.730Z,992.55
2023-03-26T08:05:36.697Z,992.54
2023-03-26T08:06:36.696Z,992.53
2023-03-26T08:07:36.673Z,992.51
2023-03-26T08:08:36.654Z,992.50
2023-03-26T08:09:36.645Z,992.49
2023-03-26T08:10:36.631Z,992.47
2023-03-26T08:11:36.632Z,992.47
2023-03-26T08:12:36.631Z,992.46
2023-03-26T08:13:36.606Z,992.45
2023-03-26T08:14:36.602Z,992.45
2023-03-26T08:15:36.647Z,992.45
2023-03-26T08:16:36.571Z,992.43
2023-03-26T08:17:36.584Z,992.43
2023-03-26T08:18:36.585Z,992.42
2023-03-26T08:19:36.546Z,992.42
2023-03-26T08:20:36.525Z,992.42
2023-03-26T08:21:36.568Z,992.41
2023-03-26T08:22:36.513Z,992.42
2023-03-26T08:23:36.513Z,992.41
2023-03-26T08:24:36.509Z,992.41
2023-03-26T08:25:37.992Z,992.40
2023-03-26T08:26:36.456Z,992.39
2023-03-26T08:27:36.462Z,992.39
2023-03-26T08:28:36.438Z,992.38
2023-03-26T08:29:36.449Z,992.37
2023-03-26T08:30:36.418Z,992.36
2023-03-26T08:31:36.492Z,992.35
2023-03-26T08:32:36.418Z,992.34
2023-03-26T08:33:38.211Z,992.34
2023-03-26T08:34:36.389Z,992.33
2023-03-26T08:35:36.420Z,992.33
2023-03-26T08:36:36.379Z,992.33
2023-03-26T08:37:36.368Z,992.33
2023-03-26T08:38:36.348Z,992.34
2023-03-26T08:39:36.340Z,992.34
2023-03-26T08:40:36.313Z,992.34
2023-03-26T08:41:36.315Z,992.33
2023-03-26T08:42:36.305Z,992.33
2023-03-26T08:43:36.293Z,992.33
2023-03-26T08:44:36.283Z,992.33
2023-03-26T08:45:36.274Z,992.33
2023-03-26T08:46:36.307Z,992.32
2023-03-26T08:47:36.284Z,992.32
2023-03-26T08:48:36.280Z,992.31
2023-03-26T08:49:36.242Z,992.31
2023-03-26T08:50:36.230Z,992.30
2023-03-26T08:51:36.199Z,992.29
2023-03-26T08:52:36.195Z,992.28
2023-03-26T08:53:36.188Z,992.28
2023-03-26T08:54:36.169Z,992.28
2023-03-26T08:55:36.156Z,992.27
2023-03-26T08:56:36.186Z,992.27
2023-03-26T08:57:36.152Z,992.26
2023-03-26T08:58:36.129Z,992.26
2023-03-26T08:59:36.123Z,992.26
2023-03-26T09:00:36.107Z,992.27
2023-03-26T09:01:36.129Z,992.27
2023-03-26T09:02:36.114Z,992.27
2023-03-26T09:03:36.143Z,992.26
2023-03-26T09:04:36.072Z,992.25
2023-03-26T09:05:36.075Z,992.25
2023-03-26T09:06:36.046Z,992.25
2023-03-26T09:07:36.030Z,992.25
2023-03-26T09:08:36.041Z,992.25
2023-03-26T09:09:36.008Z,992.25
2023-03-26T09:10:36.030Z,992.25
2023-03-26T09:11:36.028Z,992.24
2023-03-26T09:12:35.998Z,992.24
2023-03-26T09:13:35.973Z,992.24
2023-03-26T09:14:35.965Z,992.24
2023-03-26T09:15:35.949Z,992.24
2023-03-26T09:16:35.982Z,992.24
2023-03-26T09:17:35.995Z,992.23
2023-03-26T09:18:35.918Z,992.24
2023-03-26T09:19:35.917Z,992.22
2023-03-26T09:20:35.903Z,992.22
2023-03-26T09:21:35.891Z,992.22
2023-03-26T09:22:35.880Z,992.22
2023-03-26T09:23:35.879Z,992.22
2023-03-26T09:24:35.891Z,992.22
2023-03-26T09:25:35.853Z,992.21
2023-03-26T09:26:35.845Z,992.21
2023-03-26T09:27:35.837Z,992.21
2023-03-26T09:28:35.864Z,992.20
2023-03-26T09:29:35.805Z,992.20
2023-03-26T09:30:35.802Z,992.18
2023-03-26T09:31:35.828Z,992.18
2023-03-26T09:32:35.812Z,992.18
2023-03-26T09:33:35.769Z,992.18
2023-03-26T09:34:35.778Z,992.18
2023-03-26T09:35:35.761Z,992.18
2023-03-26T09:36:35.748Z,992.17
2023-03-26T09:37:35.747Z,992.17
2023-03-26T09:38:35.729Z,992.16
2023-03-26T09:39:35.698Z,992.16
2023-03-26T09:40:35.705Z,992.16
2023-03-26T09:41:35.678Z,992.15
2023-03-26T09:42:35.698Z,992.15
2023-03-26T09:43:35.664Z,992.14
2023-03-26T09:44:35.672Z,992.14
2023-03-26T09:45:35.851Z,992.13
2023-03-26T09:46:35.645Z,992.12
2023-03-26T09:47:35.642Z,992.12
2023-03-26T09:48:35.623Z,992.12
2023-03-26T09:49:35.601Z,992.12
2023-03-26T09:50:35.591Z,992.12
2023-03-26T09:51:35.581Z,992.12
2023-03-26T09:52:35.603Z,992.11
2023-03-26T09:53:35.566Z,992.11
2023-03-26T09:54:35.558Z,992.10
2023-03-26T09:55:35.573Z,992.09
2023-03-26T09:56:37.315Z,992.08
2023-03-26T09:57:35.562Z,992.07
2023-03-26T09:58:35.518Z,992.06
2023-03-26T09:59:35.503Z,992.06
2023-03-26T10:00:35.498Z,992.06
2023-03-26T10:01:35.513Z,992.06
2023-03-26T10:02:46.634Z,992.06
2023-03-26T10:03:35.457Z,992.06
2023-03-26T10:04:35.532Z,992.06
2023-03-26T10:05:35.448Z,992.06
2023-03-26T10:06:35.444Z,992.07
2023-03-26T10:07:35.409Z,992.06
2023-03-26T10:08:35.425Z,992.05
2023-03-26T10:09:35.388Z,992.05
2023-03-26T10:10:35.395Z,992.04
2023-03-26T10:11:35.367Z,992.03
2023-03-26T10:12:35.386Z,992.02
2023-03-26T10:13:35.354Z,992.00
2023-03-26T10:14:35.350Z,992.00
2023-03-26T10:15:35.336Z,991.99
2023-03-26T10:16:35.370Z,991.99
2023-03-26T10:17:35.381Z,991.98
2023-03-26T10:18:35.306Z,991.98
2023-03-26T10:19:35.308Z,991.97
2023-03-26T10:20:35.287Z,991.96
2023-03-26T10:21:35.262Z,991.97
2023-03-26T10:22:35.277Z,991.96
2023-03-26T10:23:35.281Z,991.94
2023-03-26T10:24:35.233Z,991.94
2023-03-26T10:25:35.239Z,991.93
2023-03-26T10:26:35.214Z,991.93
2023-03-26T10:27:35.202Z,991.91
2023-03-26T10:28:35.202Z,991.92
2023-03-26T10:29:35.202Z,991.91
2023-03-26T10:30:35.328Z,991.90
2023-03-26T10:31:35.165Z,991.90
2023-03-26T10:32:35.170Z,991.90
2023-03-26T10:33:35.161Z,991.89
2023-03-26T10:34:35.172Z,991.88
2023-03-26T10:35:35.163Z,991.88
2023-03-26T10:36:35.127Z,991.87
2023-03-26T10:37:35.090Z,991.86
2023-03-26T10:38:35.089Z,991.85
2023-03-26T10:39:37.404Z,991.85
2023-03-26T10:40:35.079Z,991.85
2023-03-26T10:41:35.053Z,991.84
2023-03-26T10:42:35.054Z,991.84
2023-03-26T10:43:35.033Z,991.83
2023-03-26T10:44:35.025Z,991.82
2023-03-26T10:45:35.014Z,991.83
2023-03-26T10:46:35.057Z,991.82
2023-03-26T10:47:35.064Z,991.81
2023-03-26T10:48:34.985Z,991.81
2023-03-26T10:49:34.966Z,991.82
2023-03-26T10:50:34.961Z,991.81
2023-03-26T10:51:34.942Z,991.81
2023-03-26T10:52:34.974Z,991.80
2023-03-26T10:53:34.944Z,991.80
2023-03-26T10:54:34.931Z,991.80
2023-03-26T10:55:34.907Z,991.81
2023-03-26T10:56:34.982Z,991.80
2023-03-26T10:57:34.899Z,991.80
2023-03-26T10:58:49.437Z,991.80
2023-03-26T10:59:34.879Z,991.79
2023-03-26T11:00:34.857Z,991.79
2023-03-26T11:01:34.895Z,991.77
2023-03-26T11:02:34.854Z,991.78
2023-03-26T11:03:34.839Z,991.77
2023-03-26T11:04:34.828Z,991.76
2023-03-26T11:05:34.889Z,991.76
2023-03-26T11:06:34.802Z,991.75
2023-03-26T11:07:34.800Z,991.74
2023-03-26T11:08:34.777Z,991.76
2023-03-26T11:09:34.786Z,991.75
2023-03-26T11:10:34.764Z,991.75
2023-03-26T11:11:34.748Z,991.75
2023-03-26T11:12:34.742Z,991.76
2023-03-26T11:13:34.737Z,991.75
2023-03-26T11:14:35.384Z,991.77
2023-03-26T11:15:34.727Z,991.75
2023-03-26T11:16:34.690Z,991.76
2023-03-26T11:17:40.596Z,991.76
2023-03-26T11:18:34.705Z,991.78
2023-03-26T11:19:34.655Z,991.77
2023-03-26T11:20:34.678Z,991.77
2023-03-26T11:21:34.647Z,991.77
2023-03-26T11:22:34.632Z,991.76
2023-03-26T11:23:34.631Z,991.76
2023-03-26T11:24:34.615Z,991.75
2023-03-26T11:25:34.596Z,991.75
2023-03-26T11:26:34.623Z,991.73
2023-03-26T11:27:34.581Z,991.76
2023-03-26T11:28:34.580Z,991.76
2023-03-26T11:29:34.568Z,991.76
2023-03-26T11:30:34.564Z,991.76
2023-03-26T11:31:34.547Z,991.75
2023-03-26T11:32:34.541Z,991.77
2023-03-26T11:33:34.539Z,991.75
2023-03-26T11:34:34.522Z,991.76
2023-03-26T11:35:40.968Z,991.76
2023-03-26T11:36:34.504Z,991.75
2023-03-26T11:37:34.554Z,991.77
2023-03-26T11:38:34.494Z,991.74
2023-03-26T11:39:34.458Z,991.74
2023-03-26T11:40:34.463Z,991.74
2023-03-26T11:41:34.447Z,991.73
2023-03-26T11:42:34.440Z,991.71
2023-03-26T11:43:34.420Z,991.71
2023-03-26T11:44:34.411Z,991.70
2023-03-26T11:45:34.397Z,991.69
2023-03-26T11:46:34.400Z,991.69
2023-03-26T11:47:34.385Z,991.69
2023-03-26T11:48:34.379Z,991.69
2023-03-26T11:49:34.356Z,991.68
2023-03-26T11:50:34.359Z,991.69
2023-03-26T11:51:34.347Z,991.68
2023-03-26T11:52:34.355Z,991.69
2023-03-26T11:53:34.314Z,991.70
2023-03-26T11:54:34.302Z,991.69
2023-03-26T11:55:34.294Z,991.69
2023-03-26T11:56:34.341Z,991.69
2023-03-26T11:57:34.367Z,991.68
2023-03-26T11:58:34.270Z,991.69
2023-03-26T11:59:39.225Z,991.68
2023-03-26T12:00:34.244Z,991.68
2023-03-26T12:01:34.253Z,991.68
2023-03-26T12:02:34.445Z,991.68
2023-03-26T12:03:34.209Z,991.67
2023-03-26T12:04:34.194Z,991.66
2023-03-26T12:05:34.198Z,991.66
2023-03-26T12:06:34.188Z,991.65
2023-03-26T12:07:34.167Z,991.64
2023-03-26T12:08:34.157Z,991.64
2023-03-26T12:09:34.143Z,991.63
2023-03-26T12:10:34.128Z,991.62
2023-03-26T12:11:35.264Z,991.62
2023-03-26T12:12:34.120Z,991.61
2023-03-26T12:13:34.122Z,991.61
2023-03-26T12:14:34.114Z,991.61
2023-03-26T12:15:34.091Z,991.61
2023-03-26T12:16:34.077Z,991.60
2023-03-26T12:17:34.083Z,991.61
2023-03-26T12:18:34.061Z,991.61
2023-03-26T12:19:34.048Z,991.60
2023-03-26T12:20:34.031Z,991.59
2023-03-26T12:21:34.026Z,991.59
2023-03-26T12:22:34.112Z,991.56
2023-03-26T12:23:33.988Z,991.56
2023-03-26T12:24:33.994Z,991.55
2023-03-26T12:25:33.974Z,991.55
2023-03-26T12:26:34.027Z,991.54
2023-03-26T12:27:33.946Z,991.53
2023-03-26T12:28:33.941Z,991.53